sensor_id;sensor_type;location;lat;lon;timestamp;pressure;altitude;pressure_sealevel;temperature;humidity
41688;BME280;27371;42.686;23.362;2023-05-27T00:01:59;165674.91;;;13.33;100.00
41688;BME280;27371;42.686;23.362;2023-05-27T00:04:24;165673.59;;;13.32;100.00
41688;BME280;27371;42.686;23.362;2023-05-27T00:06:50;165678.94;;;13.34;100.00
41688;BME280;27371;42.686;23.362;2023-05-27T00:09:16;165686.97;;;13.38;100.00
41688;BME280;27371;42.686;23.362;2023-05-27T00:11:41;165699.00;;;13.42;100.00
41688;BME280;27371;42.686;23.362;2023-05-27T00:14:06;165719.06;;;13.50;100.00
41688;BME280;27371;42.686;23.362;2023-05-27T00:16:32;165725.78;;;13.52;100.00
41688;BME280;27371;42.686;23.362;2023-05-27T00:19:01;165728.44;;;13.53;100.00
41688;BME280;27371;42.686;23.362;2023-05-27T00:21:27;165732.47;;;13.55;100.00
41688;BME280;27371;42.686;23.362;2023-05-27T00:23:52;165613.31;;;13.09;100.00
41688;BME280;27371;42.686;23.362;2023-05-27T00:26:18;165752.56;;;13.63;100.00
41688;BME280;27371;42.686;23.362;2023-05-27T00:28:43;165761.91;;;13.66;100.00
41688;BME280;27371;42.686;23.362;2023-05-27T00:31:09;165723.13;;;13.51;99.91
41688;BME280;27371;42.686;23.362;2023-05-27T00:33:35;165769.94;;;13.69;99.36
41688;BME280;27371;42.686;23.362;2023-05-27T00:36:00;165748.53;;;13.61;98.80
41688;BME280;27371;42.686;23.362;2023-05-27T00:38:26;165799.41;;;13.80;98.34
41688;BME280;27371;42.686;23.362;2023-05-27T00:40:53;165720.41;;;13.50;97.48
41688;BME280;27371;42.686;23.362;2023-05-27T00:43:18;165816.84;;;13.87;97.42
41688;BME280;27371;42.686;23.362;2023-05-27T00:45:44;165840.91;;;13.96;96.89
41688;BME280;27371;42.686;23.362;2023-05-27T00:48:10;165847.63;;;13.99;97.27
41688;BME280;27371;42.686;23.362;2023-05-27T00:50:36;165830.22;;;13.92;97.34
41688;BME280;27371;42.686;23.362;2023-05-27T00:53:02;165824.88;;;13.90;97.56
41688;BME280;27371;42.686;23.362;2023-05-27T00:55:28;165835.53;;;13.94;97.83
41688;BME280;27371;42.686;23.362;2023-05-27T00:57:54;165827.53;;;13.91;97.99
41688;BME280;27371;42.686;23.362;2023-05-27T01:00:20;165840.91;;;13.96;98.36
41688;BME280;27371;42.686;23.362;2023-05-27T01:02:46;165859.69;;;14.03;98.88
41688;BME280;27371;42.686;23.362;2023-05-27T01:05:14;165839.59;;;13.96;98.27
41688;BME280;27371;42.686;23.362;2023-05-27T01:13:06;165902.53;;;14.20;96.90
41688;BME280;27371;42.686;23.362;2023-05-27T01:15:34;165899.81;;;14.19;96.81
41688;BME280;27371;42.686;23.362;2023-05-27T01:18:02;165917.25;;;14.25;96.44
41688;BME280;27371;42.686;23.362;2023-05-27T01:20:32;165909.22;;;14.22;96.22
41688;BME280;27371;42.686;23.362;2023-05-27T01:22:58;165918.59;;;14.26;96.06
41688;BME280;27371;42.686;23.362;2023-05-27T01:25:25;165649.47;;;13.23;96.47
41688;BME280;27371;42.686;23.362;2023-05-27T01:27:50;165944.00;;;14.36;96.26
41688;BME280;27371;42.686;23.362;2023-05-27T01:30:18;165950.72;;;14.38;95.94
41688;BME280;27371;42.686;23.362;2023-05-27T01:33:00;165980.19;;;14.49;96.02
41688;BME280;27371;42.686;23.362;2023-05-27T01:35:34;165985.53;;;14.52;95.85
41688;BME280;27371;42.686;23.362;2023-05-27T01:38:09;165989.63;;;14.53;96.00
41688;BME280;27371;42.686;23.362;2023-05-27T01:40:38;165886.44;;;14.14;95.51
41688;BME280;27371;42.686;23.362;2023-05-27T01:43:05;165981.56;;;14.50;94.75
41688;BME280;27371;42.686;23.362;2023-05-27T01:45:31;165933.31;;;14.32;94.71
41688;BME280;27371;42.686;23.362;2023-05-27T01:47:57;165930.63;;;14.31;94.75
41688;BME280;27371;42.686;23.362;2023-05-27T01:50:23;165945.41;;;14.36;94.52
41688;BME280;27371;42.686;23.362;2023-05-27T01:52:49;165953.44;;;14.39;94.55
41688;BME280;27371;42.686;23.362;2023-05-27T01:55:15;165962.78;;;14.43;94.45
41688;BME280;27371;42.686;23.362;2023-05-27T01:57:42;165972.16;;;14.46;94.52
41688;BME280;27371;42.686;23.362;2023-05-27T02:00:11;165978.84;;;14.49;94.32
41688;BME280;27371;42.686;23.362;2023-05-27T02:02:37;165945.41;;;14.36;93.77
41688;BME280;27371;42.686;23.362;2023-05-27T02:05:03;165961.47;;;14.42;93.02
41688;BME280;27371;42.686;23.362;2023-05-27T02:07:28;165918.59;;;14.26;92.67
41688;BME280;27371;42.686;23.362;2023-05-27T02:09:54;165893.13;;;14.16;93.27
41688;BME280;27371;42.686;23.362;2023-05-27T02:12:19;165907.84;;;14.22;93.18
41688;BME280;27371;42.686;23.362;2023-05-27T02:14:45;165948.06;;;14.37;93.15
41688;BME280;27371;42.686;23.362;2023-05-27T02:17:11;165906.53;;;14.21;93.15
41688;BME280;27371;42.686;23.362;2023-05-27T02:19:43;165923.97;;;14.28;93.13
41688;BME280;27371;42.686;23.362;2023-05-27T02:22:09;165871.69;;;14.08;93.45
41688;BME280;27371;42.686;23.362;2023-05-27T02:24:34;165946.72;;;14.37;93.52
41688;BME280;27371;42.686;23.362;2023-05-27T02:27:00;165973.47;;;14.47;93.38
41688;BME280;27371;42.686;23.362;2023-05-27T02:29:26;165930.63;;;14.31;93.42
41688;BME280;27371;42.686;23.362;2023-05-27T02:31:52;165973.47;;;14.47;93.46
41688;BME280;27371;42.686;23.362;2023-05-27T02:34:17;165923.97;;;14.28;93.83
41688;BME280;27371;42.686;23.362;2023-05-27T02:36:43;165941.34;;;14.35;94.66
41688;BME280;27371;42.686;23.362;2023-05-27T02:39:09;165856.97;;;14.02;95.06
41688;BME280;27371;42.686;23.362;2023-05-27T02:41:35;165903.88;;;14.20;95.50
41688;BME280;27371;42.686;23.362;2023-05-27T02:44:01;165961.47;;;14.42;95.55
41688;BME280;27371;42.686;23.362;2023-05-27T02:46:27;165973.47;;;14.47;95.74
41688;BME280;27371;42.686;23.362;2023-05-27T02:48:53;165965.44;;;14.44;95.97
41688;BME280;27371;42.686;23.362;2023-05-27T02:51:18;165992.31;;;14.54;96.08
41688;BME280;27371;42.686;23.362;2023-05-27T02:53:44;165996.34;;;14.56;96.31
41688;BME280;27371;42.686;23.362;2023-05-27T02:56:10;165970.81;;;14.46;96.24
41688;BME280;27371;42.686;23.362;2023-05-27T02:58:35;165980.19;;;14.49;96.45
41688;BME280;27371;42.686;23.362;2023-05-27T03:01:00;166001.66;;;14.58;96.29
41688;BME280;27371;42.686;23.362;2023-05-27T03:03:26;165984.22;;;14.51;96.51
41688;BME280;27371;42.686;23.362;2023-05-27T03:05:52;166012.41;;;14.62;96.68
41688;BME280;27371;42.686;23.362;2023-05-27T03:08:17;166021.75;;;14.65;96.86
41688;BME280;27371;42.686;23.362;2023-05-27T03:10:43;166032.50;;;14.69;97.06
41688;BME280;27371;42.686;23.362;2023-05-27T03:13:08;166013.72;;;14.62;97.26
41688;BME280;27371;42.686;23.362;2023-05-27T03:15:34;166048.56;;;14.76;97.28
41688;BME280;27371;42.686;23.362;2023-05-27T03:18:00;166057.94;;;14.79;97.61
41688;BME280;27371;42.686;23.362;2023-05-27T03:20:27;166031.13;;;14.69;97.74
41688;BME280;27371;42.686;23.362;2023-05-27T03:22:52;166060.59;;;14.80;97.54
41688;BME280;27371;42.686;23.362;2023-05-27T03:25:18;166051.22;;;14.77;97.35
41688;BME280;27371;42.686;23.362;2023-05-27T03:27:44;166031.13;;;14.69;97.48
41688;BME280;27371;42.686;23.362;2023-05-27T03:30:15;166104.84;;;14.97;98.09
41688;BME280;27371;42.686;23.362;2023-05-27T03:32:41;166163.78;;;15.20;97.86
41688;BME280;27371;42.686;23.362;2023-05-27T03:35:06;166292.50;;;15.69;96.50
41688;BME280;27371;42.686;23.362;2023-05-27T03:37:32;166330.00;;;15.83;93.95
41688;BME280;27371;42.686;23.362;2023-05-27T03:39:58;166292.50;;;15.69;91.66
41688;BME280;27371;42.686;23.362;2023-05-27T03:42:23;166261.59;;;15.57;91.51
41688;BME280;27371;42.686;23.362;2023-05-27T03:44:49;166237.47;;;15.48;91.44
41688;BME280;27371;42.686;23.362;2023-05-27T03:47:15;166205.34;;;15.35;91.69
41688;BME280;27371;42.686;23.362;2023-05-27T03:49:43;166163.78;;;15.20;92.01
41688;BME280;27371;42.686;23.362;2023-05-27T03:52:09;166141.00;;;15.11;92.72
41688;BME280;27371;42.686;23.362;2023-05-27T03:54:34;166099.47;;;14.95;93.21
41688;BME280;27371;42.686;23.362;2023-05-27T03:57:00;166124.91;;;15.05;93.53
41688;BME280;27371;42.686;23.362;2023-05-27T03:59:26;166072.66;;;14.85;93.79
41688;BME280;27371;42.686;23.362;2023-05-27T04:01:51;166115.53;;;15.01;93.99
41688;BME280;27371;42.686;23.362;2023-05-27T04:04:17;166088.72;;;14.91;94.11
41688;BME280;27371;42.686;23.362;2023-05-27T04:06:43;166064.63;;;14.82;94.14
41688;BME280;27371;42.686;23.362;2023-05-27T04:09:09;166119.56;;;15.03;94.21
41688;BME280;27371;42.686;23.362;2023-05-27T04:11:34;166119.56;;;15.03;94.32
41688;BME280;27371;42.686;23.362;2023-05-27T04:14:00;166114.22;;;15.01;94.55
41688;BME280;27371;42.686;23.362;2023-05-27T04:16:25;166107.50;;;14.98;94.17
41688;BME280;27371;42.686;23.362;2023-05-27T04:18:51;166092.78;;;14.92;92.86
41688;BME280;27371;42.686;23.362;2023-05-27T04:21:18;166020.44;;;14.65;92.56
41688;BME280;27371;42.686;23.362;2023-05-27T04:23:44;165901.16;;;14.19;92.37
41688;BME280;27371;42.686;23.362;2023-05-27T04:26:09;165974.84;;;14.47;94.54
41688;BME280;27371;42.686;23.362;2023-05-27T04:28:35;166003.00;;;14.58;96.19
41688;BME280;27371;42.686;23.362;2023-05-27T04:31:01;166007.03;;;14.60;96.82
41688;BME280;27371;42.686;23.362;2023-05-27T04:33:27;166130.28;;;15.07;95.98
41688;BME280;27371;42.686;23.362;2023-05-27T04:35:53;166153.03;;;15.15;94.82
41688;BME280;27371;42.686;23.362;2023-05-27T04:38:25;166157.09;;;15.17;94.27
41688;BME280;27371;42.686;23.362;2023-05-27T04:40:50;166191.94;;;15.30;94.24
41688;BME280;27371;42.686;23.362;2023-05-27T04:43:20;166159.75;;;15.18;93.62
41688;BME280;27371;42.686;23.362;2023-05-27T04:45:46;166153.03;;;15.15;92.92
41688;BME280;27371;42.686;23.362;2023-05-27T04:48:12;166232.09;;;15.46;92.73
41688;BME280;27371;42.686;23.362;2023-05-27T04:50:37;166237.47;;;15.48;92.37
41688;BME280;27371;42.686;23.362;2023-05-27T04:53:04;166214.69;;;15.39;92.50
41688;BME280;27371;42.686;23.362;2023-05-27T04:55:30;166228.13;;;15.44;92.40
41688;BME280;27371;42.686;23.362;2023-05-27T04:57:56;166288.41;;;15.67;91.91
41688;BME280;27371;42.686;23.362;2023-05-27T05:00:22;166262.91;;;15.57;91.16
41688;BME280;27371;42.686;23.362;2023-05-27T05:03:04;166225.41;;;15.43;91.10
41688;BME280;27371;42.686;23.362;2023-05-27T05:05:31;166287.06;;;15.67;90.99
41688;BME280;27371;42.686;23.362;2023-05-27T05:07:57;166303.19;;;15.73;90.52
41688;BME280;27371;42.686;23.362;2023-05-27T05:10:23;166330.00;;;15.83;90.10
41688;BME280;27371;42.686;23.362;2023-05-27T05:12:49;166346.09;;;15.89;89.37
41688;BME280;27371;42.686;23.362;2023-05-27T05:15:15;166321.97;;;15.80;88.58
41688;BME280;27371;42.686;23.362;2023-05-27T05:17:41;166348.75;;;15.90;88.50
41688;BME280;27371;42.686;23.362;2023-05-27T05:20:07;166348.75;;;15.90;88.45
41688;BME280;27371;42.686;23.362;2023-05-27T05:22:41;166320.59;;;15.79;87.78
41688;BME280;27371;42.686;23.362;2023-05-27T05:25:07;166338.06;;;15.86;87.13
41688;BME280;27371;42.686;23.362;2023-05-27T05:27:33;166305.84;;;15.74;86.42
41688;BME280;27371;42.686;23.362;2023-05-27T05:29:58;166276.31;;;15.63;86.05
41688;BME280;27371;42.686;23.362;2023-05-27T05:32:24;166355.47;;;15.93;86.91
41688;BME280;27371;42.686;23.362;2023-05-27T05:34:49;166449.28;;;16.29;86.96
41688;BME280;27371;42.686;23.362;2023-05-27T05:37:15;166481.50;;;16.41;83.67
41688;BME280;27371;42.686;23.362;2023-05-27T05:39:41;166466.75;;;16.35;83.17
41688;BME280;27371;42.686;23.362;2023-05-27T05:42:09;166434.56;;;16.23;82.98
41688;BME280;27371;42.686;23.362;2023-05-27T05:44:35;166417.16;;;16.16;83.34
41688;BME280;27371;42.686;23.362;2023-05-27T05:47:01;166494.91;;;16.46;83.56
41688;BME280;27371;42.686;23.362;2023-05-27T05:49:26;166506.94;;;16.51;83.52
41688;BME280;27371;42.686;23.362;2023-05-27T05:51:52;166509.66;;;16.52;82.93
41688;BME280;27371;42.686;23.362;2023-05-27T05:54:17;166492.19;;;16.45;83.24
41688;BME280;27371;42.686;23.362;2023-05-27T05:56:43;166504.28;;;16.50;83.57
41688;BME280;27371;42.686;23.362;2023-05-27T05:59:08;166500.25;;;16.48;83.20
41688;BME280;27371;42.686;23.362;2023-05-27T06:01:34;166486.81;;;16.43;83.32
41688;BME280;27371;42.686;23.362;2023-05-27T06:03:59;166474.78;;;16.38;83.15
41688;BME280;27371;42.686;23.362;2023-05-27T06:06:30;166435.88;;;16.23;82.21
41688;BME280;27371;42.686;23.362;2023-05-27T06:08:55;166376.91;;;16.01;83.74
41688;BME280;27371;42.686;23.362;2023-05-27T06:11:21;166375.56;;;16.00;85.19
41688;BME280;27371;42.686;23.362;2023-05-27T06:13:47;166391.66;;;16.07;86.19
41688;BME280;27371;42.686;23.362;2023-05-27T06:16:12;166384.94;;;16.04;86.42
41688;BME280;27371;42.686;23.362;2023-05-27T06:18:38;166450.63;;;16.29;86.02
41688;BME280;27371;42.686;23.362;2023-05-27T06:21:03;166490.88;;;16.44;86.04
41688;BME280;27371;42.686;23.362;2023-05-27T06:23:29;166505.63;;;16.50;85.25
41688;BME280;27371;42.686;23.362;2023-05-27T06:25:54;166517.69;;;16.55;84.49
41688;BME280;27371;42.686;23.362;2023-05-27T06:28:20;166536.44;;;16.62;84.13
41688;BME280;27371;42.686;23.362;2023-05-27T06:30:45;166541.81;;;16.64;83.74
41688;BME280;27371;42.686;23.362;2023-05-27T06:33:13;166578.09;;;16.78;83.59
41688;BME280;27371;42.686;23.362;2023-05-27T06:35:39;166596.88;;;16.85;83.24
41688;BME280;27371;42.686;23.362;2023-05-27T06:38:04;166482.84;;;16.41;82.56
41688;BME280;27371;42.686;23.362;2023-05-27T06:40:30;166616.94;;;16.92;82.05
41688;BME280;27371;42.686;23.362;2023-05-27T06:42:56;166614.28;;;16.91;81.87
41688;BME280;27371;42.686;23.362;2023-05-27T06:45:22;166627.72;;;16.97;81.76
41688;BME280;27371;42.686;23.362;2023-05-27T06:47:47;166623.66;;;16.95;82.05
41688;BME280;27371;42.686;23.362;2023-05-27T06:50:13;166638.41;;;17.01;81.83
41688;BME280;27371;42.686;23.362;2023-05-27T06:52:38;166657.22;;;17.08;81.77
41688;BME280;27371;42.686;23.362;2023-05-27T06:55:05;166681.34;;;17.17;81.23
41688;BME280;27371;42.686;23.362;2023-05-27T06:57:33;166705.53;;;17.26;80.68
41688;BME280;27371;42.686;23.362;2023-05-27T06:59:59;166698.81;;;17.24;80.24
41688;BME280;27371;42.686;23.362;2023-05-27T07:02:24;166743.06;;;17.41;79.47
41688;BME280;27371;42.686;23.362;2023-05-27T07:04:50;166729.66;;;17.35;79.02
41688;BME280;27371;42.686;23.362;2023-05-27T07:07:15;166759.16;;;17.47;79.25
41688;BME280;27371;42.686;23.362;2023-05-27T07:12:25;166807.47;;;17.65;78.06
41688;BME280;27371;42.686;23.362;2023-05-27T07:14:50;166769.91;;;17.51;77.64
41688;BME280;27371;42.686;23.362;2023-05-27T07:17:16;166771.25;;;17.51;78.23
41688;BME280;27371;42.686;23.362;2023-05-27T07:19:42;166646.50;;;17.04;78.27
41688;BME280;27371;42.686;23.362;2023-05-27T07:22:07;166811.47;;;17.67;77.93
41688;BME280;27371;42.686;23.362;2023-05-27T07:24:33;166807.47;;;17.65;78.11
41688;BME280;27371;42.686;23.362;2023-05-27T07:26:58;166806.13;;;17.65;78.78
41688;BME280;27371;42.686;23.362;2023-05-27T07:29:24;166811.47;;;17.67;78.62
41688;BME280;27371;42.686;23.362;2023-05-27T07:31:50;166706.84;;;17.27;78.33
41688;BME280;27371;42.686;23.362;2023-05-27T07:34:15;166866.56;;;17.88;77.85
41688;BME280;27371;42.686;23.362;2023-05-27T07:36:41;166883.97;;;17.94;77.55
41688;BME280;27371;42.686;23.362;2023-05-27T07:39:06;166916.19;;;18.07;77.18
41688;BME280;27371;42.686;23.362;2023-05-27T07:41:32;166869.22;;;17.89;76.24
41688;BME280;27371;42.686;23.362;2023-05-27T07:43:58;166870.59;;;17.89;76.43
41688;BME280;27371;42.686;23.362;2023-05-27T07:46:23;166913.50;;;18.06;77.07
41688;BME280;27371;42.686;23.362;2023-05-27T07:48:49;166937.69;;;18.15;77.10
41688;BME280;27371;42.686;23.362;2023-05-27T07:51:14;166949.72;;;18.19;76.81
41688;BME280;27371;42.686;23.362;2023-05-27T07:53:40;166971.19;;;18.28;76.50
41688;BME280;27371;42.686;23.362;2023-05-27T07:56:06;166975.25;;;18.29;76.30
41688;BME280;27371;42.686;23.362;2023-05-27T07:58:31;166948.38;;;18.19;75.19
41688;BME280;27371;42.686;23.362;2023-05-27T08:00:57;166956.44;;;18.22;75.34
41688;BME280;27371;42.686;23.362;2023-05-27T08:03:22;166964.53;;;18.25;75.12
41688;BME280;27371;42.686;23.362;2023-05-27T08:05:48;166969.88;;;18.27;74.71
41688;BME280;27371;42.686;23.362;2023-05-27T08:08:13;166957.81;;;18.22;74.74
41688;BME280;27371;42.686;23.362;2023-05-27T08:10:39;166901.44;;;18.01;74.21
41688;BME280;27371;42.686;23.362;2023-05-27T08:13:05;166922.91;;;18.09;73.80
41688;BME280;27371;42.686;23.362;2023-05-27T08:15:30;166956.44;;;18.22;73.92
41688;BME280;27371;42.686;23.362;2023-05-27T08:17:57;166928.31;;;18.11;73.94
41688;BME280;27371;42.686;23.362;2023-05-27T08:20:22;166981.97;;;18.32;74.32
41688;BME280;27371;42.686;23.362;2023-05-27T08:22:48;166947.06;;;18.18;73.82
41688;BME280;27371;42.686;23.362;2023-05-27T08:25:13;166947.06;;;18.18;73.68
41688;BME280;27371;42.686;23.362;2023-05-27T08:27:50;166972.59;;;18.28;73.30
41688;BME280;27371;42.686;23.362;2023-05-27T08:30:17;166980.63;;;18.31;72.81
41688;BME280;27371;42.686;23.362;2023-05-27T08:32:52;166936.34;;;18.14;73.20
41688;BME280;27371;42.686;23.362;2023-05-27T08:35:20;166969.88;;;18.27;73.22
41688;BME280;27371;42.686;23.362;2023-05-27T08:37:45;166965.88;;;18.25;73.09
41688;BME280;27371;42.686;23.362;2023-05-27T08:40:14;166929.63;;;18.12;72.71
41688;BME280;27371;42.686;23.362;2023-05-27T08:42:41;166976.59;;;18.30;71.92
41688;BME280;27371;42.686;23.362;2023-05-27T08:45:08;166944.41;;;18.17;71.74
41688;BME280;27371;42.686;23.362;2023-05-27T08:47:34;166984.63;;;18.33;71.87
41688;BME280;27371;42.686;23.362;2023-05-27T08:49:59;167003.44;;;18.40;72.12
41688;BME280;27371;42.686;23.362;2023-05-27T08:52:27;166890.69;;;17.97;72.15
41688;BME280;27371;42.686;23.362;2023-05-27T08:54:54;167016.88;;;18.45;72.22
41688;BME280;27371;42.686;23.362;2023-05-27T08:57:20;167015.53;;;18.44;71.07
41688;BME280;27371;42.686;23.362;2023-05-27T08:59:50;167032.97;;;18.51;70.91
41688;BME280;27371;42.686;23.362;2023-05-27T09:02:17;167008.81;;;18.42;70.85
41688;BME280;27371;42.686;23.362;2023-05-27T09:04:45;167054.44;;;18.59;71.03
41688;BME280;27371;42.686;23.362;2023-05-27T09:07:11;167046.38;;;18.56;70.82
41688;BME280;27371;42.686;23.362;2023-05-27T09:09:38;167081.31;;;18.69;71.24
41688;BME280;27371;42.686;23.362;2023-05-27T09:12:05;167079.91;;;18.69;70.64
41688;BME280;27371;42.686;23.362;2023-05-27T09:14:31;167074.59;;;18.67;70.48
41688;BME280;27371;42.686;23.362;2023-05-27T09:17:05;167117.59;;;18.83;70.68
41688;BME280;27371;42.686;23.362;2023-05-27T09:19:30;167106.84;;;18.79;69.14
41688;BME280;27371;42.686;23.362;2023-05-27T09:21:56;167063.81;;;18.63;68.98
41688;BME280;27371;42.686;23.362;2023-05-27T09:24:24;167109.56;;;18.80;69.01
41688;BME280;27371;42.686;23.362;2023-05-27T09:26:51;167139.09;;;18.91;68.99
41688;BME280;27371;42.686;23.362;2023-05-27T09:29:18;167176.66;;;19.06;69.29
41688;BME280;27371;42.686;23.362;2023-05-27T09:31:44;167180.66;;;19.07;68.50
41688;BME280;27371;42.686;23.362;2023-05-27T09:34:16;167167.28;;;19.02;67.58
41688;BME280;27371;42.686;23.362;2023-05-27T09:36:46;167184.72;;;19.09;67.30
41688;BME280;27371;42.686;23.362;2023-05-27T09:39:18;167227.69;;;19.25;67.79
41688;BME280;27371;42.686;23.362;2023-05-27T09:41:50;167249.19;;;19.33;67.32
41688;BME280;27371;42.686;23.362;2023-05-27T09:44:16;167255.88;;;19.36;66.41
41688;BME280;27371;42.686;23.362;2023-05-27T09:46:44;167270.66;;;19.42;65.80
41688;BME280;27371;42.686;23.362;2023-05-27T09:49:13;167289.44;;;19.49;65.08
41688;BME280;27371;42.686;23.362;2023-05-27T09:51:41;167276.03;;;19.44;64.59
41688;BME280;27371;42.686;23.362;2023-05-27T09:54:08;167325.69;;;19.63;64.68
41688;BME280;27371;42.686;23.362;2023-05-27T09:56:34;167366.06;;;19.78;64.92
41688;BME280;27371;42.686;23.362;2023-05-27T09:59:00;167402.31;;;19.92;63.87
41688;BME280;27371;42.686;23.362;2023-05-27T10:01:29;167382.16;;;19.84;63.59
41688;BME280;27371;42.686;23.362;2023-05-27T10:03:55;167366.06;;;19.78;63.09
41688;BME280;27371;42.686;23.362;2023-05-27T10:06:21;167405.00;;;19.93;63.17
41688;BME280;27371;42.686;23.362;2023-05-27T10:08:49;167403.66;;;19.92;62.60
41688;BME280;27371;42.686;23.362;2023-05-27T10:11:15;167449.38;;;20.10;60.86
41688;BME280;27371;42.686;23.362;2023-05-27T10:13:40;167427.88;;;20.01;61.03
41688;BME280;27371;42.686;23.362;2023-05-27T10:16:06;167417.09;;;19.97;61.02
41688;BME280;27371;42.686;23.362;2023-05-27T10:18:31;167443.97;;;20.08;61.71
41688;BME280;27371;42.686;23.362;2023-05-27T10:21:02;167433.19;;;20.03;60.39
41688;BME280;27371;42.686;23.362;2023-05-27T10:23:30;167419.75;;;19.98;61.66
41688;BME280;27371;42.686;23.362;2023-05-27T10:26:07;167446.66;;;20.09;61.91
41688;BME280;27371;42.686;23.362;2023-05-27T10:28:38;167473.53;;;20.19;61.21
41688;BME280;27371;42.686;23.362;2023-05-27T10:31:07;167511.13;;;20.33;61.30
41688;BME280;27371;42.686;23.362;2023-05-27T10:33:37;167508.47;;;20.32;61.68
41688;BME280;27371;42.686;23.362;2023-05-27T10:36:26;167609.31;;;20.71;61.20
41688;BME280;27371;42.686;23.362;2023-05-27T10:39:04;167622.69;;;20.76;59.29
41688;BME280;27371;42.686;23.362;2023-05-27T10:44:32;167490.97;;;20.25;60.71
41688;BME280;27371;42.686;23.362;2023-05-27T10:49:26;167403.66;;;19.92;62.72
41688;BME280;27371;42.686;23.362;2023-05-27T10:52:11;167417.09;;;19.97;61.50
41688;BME280;27371;42.686;23.362;2023-05-27T10:54:39;167387.56;;;19.86;62.67
41688;BME280;27371;42.686;23.362;2023-05-27T10:57:06;167406.38;;;19.93;64.30
41688;BME280;27371;42.686;23.362;2023-05-27T11:02:11;167321.69;;;19.61;64.00
41688;BME280;27371;42.686;23.362;2023-05-27T11:04:37;167258.56;;;19.37;62.92
41688;BME280;27371;42.686;23.362;2023-05-27T11:07:03;167329.75;;;19.64;62.83
41688;BME280;27371;42.686;23.362;2023-05-27T11:09:29;167333.84;;;19.66;61.80
41688;BME280;27371;42.686;23.362;2023-05-27T11:11:55;167376.78;;;19.82;61.86
41688;BME280;27371;42.686;23.362;2023-05-27T11:14:23;167371.44;;;19.80;61.95
41688;BME280;27371;42.686;23.362;2023-05-27T11:16:49;167360.69;;;19.76;62.59
41688;BME280;27371;42.686;23.362;2023-05-27T11:19:18;167382.16;;;19.84;60.86
41688;BME280;27371;42.686;23.362;2023-05-27T11:21:47;167371.44;;;19.80;61.43
41688;BME280;27371;42.686;23.362;2023-05-27T11:24:17;167454.69;;;20.12;60.18
41688;BME280;27371;42.686;23.362;2023-05-27T11:26:47;167466.81;;;20.16;61.43
41688;BME280;27371;42.686;23.362;2023-05-27T11:29:16;167551.47;;;20.49;59.10
41688;BME280;27371;42.686;23.362;2023-05-27T11:31:46;167511.13;;;20.33;58.97
41688;BME280;27371;42.686;23.362;2023-05-27T11:34:13;167524.59;;;20.38;58.73
41688;BME280;27371;42.686;23.362;2023-05-27T11:36:40;167450.69;;;20.10;59.00
41688;BME280;27371;42.686;23.362;2023-05-27T11:39:11;167387.56;;;19.86;59.53
41688;BME280;27371;42.686;23.362;2023-05-27T11:41:52;167331.06;;;19.65;59.14
41688;BME280;27371;42.686;23.362;2023-05-27T11:44:27;167333.84;;;19.66;60.69
41688;BME280;27371;42.686;23.362;2023-05-27T11:46:57;167452.03;;;20.11;61.39
41688;BME280;27371;42.686;23.362;2023-05-27T11:49:24;167503.09;;;20.30;60.97
41688;BME280;27371;42.686;23.362;2023-05-27T11:51:50;167554.13;;;20.50;58.94
41688;BME280;27371;42.686;23.362;2023-05-27T11:54:19;167593.13;;;20.64;59.38
41688;BME280;27371;42.686;23.362;2023-05-27T11:56:47;167626.75;;;20.77;57.97
41688;BME280;27371;42.686;23.362;2023-05-27T11:59:12;167697.97;;;21.04;57.04
41688;BME280;27371;42.686;23.362;2023-05-27T12:01:40;167735.59;;;21.19;55.85
41688;BME280;27371;42.686;23.362;2023-05-27T12:04:05;167750.38;;;21.24;55.68
41688;BME280;27371;42.686;23.362;2023-05-27T12:06:31;167777.28;;;21.34;56.13
41688;BME280;27371;42.686;23.362;2023-05-27T12:08:57;167762.50;;;21.29;55.11
41688;BME280;27371;42.686;23.362;2023-05-27T12:11:23;167757.13;;;21.27;55.35
41688;BME280;27371;42.686;23.362;2023-05-27T12:13:48;167700.66;;;21.05;55.75
41688;BME280;27371;42.686;23.362;2023-05-27T12:16:14;167762.50;;;21.29;55.96
41688;BME280;27371;42.686;23.362;2023-05-27T12:18:39;167800.19;;;21.43;56.48
41688;BME280;27371;42.686;23.362;2023-05-27T12:21:07;167767.84;;;21.31;56.04
41688;BME280;27371;42.686;23.362;2023-05-27T12:23:33;167784.06;;;21.37;55.98
41688;BME280;27371;42.686;23.362;2023-05-27T12:25:58;167808.25;;;21.46;57.05
41688;BME280;27371;42.686;23.362;2023-05-27T12:28:24;167856.66;;;21.65;56.10
41688;BME280;27371;42.686;23.362;2023-05-27T12:30:49;167882.16;;;21.74;55.34
41688;BME280;27371;42.686;23.362;2023-05-27T12:33:15;167821.69;;;21.51;52.15
41688;BME280;27371;42.686;23.362;2023-05-27T12:35:40;167814.97;;;21.49;54.30
41688;BME280;27371;42.686;23.362;2023-05-27T12:38:06;167804.19;;;21.45;55.40
41688;BME280;27371;42.686;23.362;2023-05-27T12:40:32;167855.31;;;21.64;55.38
41688;BME280;27371;42.686;23.362;2023-05-27T12:42:58;167883.50;;;21.75;55.18
41688;BME280;27371;42.686;23.362;2023-05-27T12:45:24;167824.34;;;21.52;53.09
41688;BME280;27371;42.686;23.362;2023-05-27T12:47:51;167884.88;;;21.75;52.62
41688;BME280;27371;42.686;23.362;2023-05-27T12:50:17;167891.63;;;21.78;52.70
41688;BME280;27371;42.686;23.362;2023-05-27T12:52:43;167843.19;;;21.60;51.74
41688;BME280;27371;42.686;23.362;2023-05-27T12:55:17;167788.06;;;21.39;53.38